メインページ
METAR-TAF:

METAR-TAF

空港 :

オークランド国際空港

オークランド, ニュージーランド

緯度: 37-01S, 経度: 174-48E, 海抜: 7m

現時点の気象観測

当レポートは19分前の14:00(UTC)に作成
の風 3kt
気温 12°C
湿度 88%
気圧 1009 hPa
視程10km以上
霧雨,

METAR: NZAA 241400Z AUTO 09003KT 9999 DZ FEW020/// BKN033/// BKN070/// 12/10 Q1009

時間: 02:19 (14:19 UTC)

予報

当レポートは3時間18分前の11:01(UTC)に作成
予報は24日の 12時(UTC)から 25日の 18時(UTC)まで有効
西/南西の風 8kt
視程10km以上
高度2500ftの雲は散在している
弱いにわか雨
24日の 12時(UTC)から 24日の 13時(UTC)まで一時的に
視程: 7000m
にわか雨
24日の 13時(UTC)から 24日の 21時(UTC)まで一時的に
視程: 5000m
高度2000ftの雲は散在している, 塔状積雲.
にわか雨
確率 30% :
24日の 13時(UTC)から 24日の 19時(UTC)まで一時的に
視程: 2000m
高度2000ftの雲はほとんどない, 積乱雲.
激しい雷雨, 雨
24日の 21時(UTC)から 24日の 23時(UTC)まで徐々に
西/南西の風 18kt
24日の 21時(UTC)から 25日の 18時(UTC)まで一時的に
視程: 7000m
にわか雨
25日の 13時(UTC)から 25日の 15時(UTC)まで徐々に
西/南西の風 18kt、最大28ktの突風を伴う

TAF: NZAA 241101Z 2412/2518 24008KT 9999 -SHRA SCT025 TEMPO 2412/2413 7000 SHRA TEMPO 2413/2421 5000 SHRA SCT020TCU PROB30 TEMPO 2413/2419 2000 TSRA FEW020CB BECMG 2421/2423 24018KT TEMPO 2421/2518 7000 SHRA BECMG 2513/2515 24018G28KT

4,000以上の空港の気象観測と天気予報(METAR報とTAF報)

利用可能な観測所は地図上に黄色い丸と赤い丸で示す。

丸の上にカーソルを重ねると観測所名を参照できる。

次にクリックすると気象観測と天気予報を参照できる。

マップの切り替え:黒色「×」印の緑ボタンをクリックして拡大、「-」印の緑ボタンをクリックして縮小、緑色の三角印をクリックして隣りの地図に切り替え


METAR-TAF: